createdAt,value
2018-12-06T00:03:09.179Z,60.10
2018-12-06T00:08:17.200Z,60.03
2018-12-06T00:13:20.616Z,60.16
2018-12-06T00:18:24.081Z,60.03
2018-12-06T00:23:27.403Z,60.31
2018-12-06T00:28:30.800Z,60.75
2018-12-06T00:33:34.172Z,60.79
2018-12-06T00:38:37.629Z,60.48
2018-12-06T00:43:41.093Z,60.78
2018-12-06T00:48:44.572Z,61.21
2018-12-06T00:53:48.073Z,61.00
2018-12-06T00:58:51.492Z,61.35
2018-12-06T01:03:54.945Z,61.26
2018-12-06T01:08:58.381Z,61.24
2018-12-06T01:14:01.826Z,61.86
2018-12-06T01:19:08.296Z,61.80
2018-12-06T01:24:11.688Z,61.88
2018-12-06T01:29:15.081Z,62.19
2018-12-06T01:34:18.544Z,62.21
2018-12-06T01:39:21.996Z,62.31
2018-12-06T01:44:25.539Z,62.14
2018-12-06T01:49:29.137Z,62.79
2018-12-06T01:54:32.672Z,62.43
2018-12-06T01:59:36.101Z,62.62
2018-12-06T02:04:39.467Z,63.00
2018-12-06T02:09:42.900Z,63.08
2018-12-06T02:14:46.303Z,62.69
2018-12-06T02:19:49.693Z,63.13
2018-12-06T02:24:53.125Z,63.12
2018-12-06T02:29:56.457Z,63.29
2018-12-06T02:34:59.933Z,63.55
2018-12-06T02:40:03.844Z,64.23
2018-12-06T02:45:07.410Z,63.68
2018-12-06T02:50:10.840Z,63.66
2018-12-06T02:55:14.386Z,64.28
2018-12-06T03:00:17.827Z,64.51
2018-12-06T03:05:21.192Z,64.17
2018-12-06T03:10:24.566Z,64.64
2018-12-06T03:15:28.037Z,64.71
2018-12-06T03:20:31.623Z,64.28
2018-12-06T03:25:35.011Z,64.73
2018-12-06T03:30:38.487Z,64.32
2018-12-06T03:35:41.902Z,64.56
2018-12-06T03:40:45.346Z,64.60
2018-12-06T03:45:48.779Z,64.74
2018-12-06T03:50:52.155Z,65.41
2018-12-06T03:55:55.492Z,65.80
2018-12-06T04:00:58.861Z,65.30
2018-12-06T04:06:02.349Z,65.86
2018-12-06T04:11:05.724Z,66.03
2018-12-06T04:16:09.089Z,65.77
2018-12-06T04:21:12.466Z,65.75
2018-12-06T04:26:15.917Z,66.19
2018-12-06T04:31:19.336Z,66.05
2018-12-06T04:36:22.686Z,65.37
2018-12-06T04:41:26.117Z,65.79
2018-12-06T04:46:29.598Z,65.57
2018-12-06T04:51:33.074Z,65.15
2018-12-06T04:56:36.553Z,65.20
2018-12-06T05:01:40.041Z,64.56
2018-12-06T05:06:43.503Z,65.22
2018-12-06T05:11:47.923Z,64.72
2018-12-06T05:16:51.423Z,65.18
2018-12-06T05:21:54.828Z,64.71
2018-12-06T05:26:58.216Z,64.99
2018-12-06T05:32:01.852Z,64.72
2018-12-06T05:37:05.357Z,64.89
2018-12-06T05:42:08.864Z,65.20
2018-12-06T05:47:12.355Z,64.89
2018-12-06T05:52:15.803Z,64.73
2018-12-06T05:57:19.258Z,64.94
2018-12-06T06:02:29.034Z,65.12
2018-12-06T06:07:32.419Z,64.83
2018-12-06T06:12:35.935Z,64.67
2018-12-06T06:17:39.389Z,64.60
2018-12-06T06:22:42.766Z,64.97
2018-12-06T06:27:46.162Z,64.75
2018-12-06T06:32:49.566Z,64.67
2018-12-06T06:37:52.939Z,64.68
2018-12-06T06:42:56.328Z,64.49
2018-12-06T06:47:59.861Z,64.66
2018-12-06T06:53:03.220Z,64.57
2018-12-06T06:58:06.622Z,64.84
2018-12-06T07:03:16.806Z,64.65
2018-12-06T07:08:20.290Z,64.53
2018-12-06T07:13:23.704Z,65.01
2018-12-06T07:18:27.089Z,64.39
2018-12-06T07:23:30.521Z,65.04
2018-12-06T07:28:33.946Z,65.04
2018-12-06T07:33:37.540Z,65.03
2018-12-06T07:38:40.976Z,64.64
2018-12-06T07:43:44.304Z,44.08
2018-12-06T07:48:47.663Z,45.83
2018-12-06T07:53:51.146Z,46.30
2018-12-06T07:58:54.535Z,46.67
2018-12-06T08:03:58.034Z,47.46
2018-12-06T08:09:01.423Z,47.91
2018-12-06T08:14:04.947Z,48.34
2018-12-06T08:19:08.302Z,49.01
2018-12-06T08:24:11.667Z,49.34
2018-12-06T08:29:15.003Z,50.30
2018-12-06T08:34:18.323Z,48.41
2018-12-06T08:44:31.246Z,46.32
2018-12-06T08:49:34.623Z,47.45
2018-12-06T08:54:37.942Z,47.38
2018-12-06T08:59:41.371Z,47.73
2018-12-06T09:04:44.717Z,49.27
2018-12-06T09:09:48.188Z,49.22
2018-12-06T09:14:51.551Z,49.93
2018-12-06T09:19:54.971Z,50.28
2018-12-06T09:24:58.377Z,50.49
2018-12-06T09:30:01.847Z,50.18
2018-12-06T09:35:06.114Z,50.88
2018-12-06T09:40:10.361Z,50.79
2018-12-06T09:45:14.109Z,51.41
2018-12-06T09:50:17.532Z,51.46
2018-12-06T09:55:20.897Z,51.58
2018-12-06T10:00:24.367Z,52.08
2018-12-06T10:05:27.690Z,52.12
2018-12-06T10:10:31.140Z,53.13
2018-12-06T10:15:34.585Z,53.95
2018-12-06T10:20:37.971Z,54.58
2018-12-06T10:25:41.415Z,54.63
2018-12-06T10:30:44.766Z,55.10
2018-12-06T10:35:48.214Z,55.85
2018-12-06T10:40:51.603Z,55.91
2018-12-06T10:45:55.014Z,56.18
2018-12-06T10:51:09.748Z,56.55
2018-12-06T10:56:13.131Z,56.39
2018-12-06T11:01:18.915Z,56.85
2018-12-06T11:06:22.430Z,56.60
2018-12-06T11:11:26.574Z,56.03
2018-12-06T11:16:30.082Z,57.35
2018-12-06T11:21:33.484Z,57.56
2018-12-06T11:26:37.120Z,57.49
2018-12-06T11:31:40.571Z,57.53
2018-12-06T11:36:44.071Z,57.16
2018-12-06T11:41:47.454Z,57.55
2018-12-06T11:46:50.897Z,57.72
2018-12-06T11:51:54.355Z,57.89
2018-12-06T11:56:57.788Z,58.12
2018-12-06T12:02:01.338Z,57.82
2018-12-06T12:07:04.826Z,58.14
2018-12-06T12:12:08.206Z,57.54
2018-12-06T12:17:11.651Z,57.50
2018-12-06T12:22:15.054Z,57.54
2018-12-06T12:27:18.545Z,57.69
2018-12-06T12:32:22.107Z,57.28
2018-12-06T12:37:25.602Z,58.45
2018-12-06T12:42:29.082Z,58.60
2018-12-06T12:47:32.615Z,59.57
2018-12-06T12:52:36.075Z,59.26
2018-12-06T12:57:39.479Z,59.15
2018-12-06T13:02:42.976Z,59.70
2018-12-06T13:07:46.495Z,58.91
2018-12-06T13:12:50.341Z,58.44
2018-12-06T13:17:53.723Z,58.53
2018-12-06T13:22:57.236Z,59.31
2018-12-06T13:28:00.756Z,59.05
2018-12-06T13:33:04.233Z,59.07
2018-12-06T13:38:07.824Z,59.54
2018-12-06T13:43:11.344Z,60.20
2018-12-06T13:48:14.872Z,59.94
2018-12-06T13:53:18.389Z,60.19
2018-12-06T13:58:21.824Z,60.21
2018-12-06T14:03:25.358Z,60.27
2018-12-06T14:08:28.807Z,60.06
2018-12-06T14:13:32.258Z,59.50
2018-12-06T14:18:35.688Z,58.90
2018-12-06T14:23:39.040Z,58.39
2018-12-06T14:28:42.402Z,59.56
2018-12-06T14:33:54.498Z,59.56
2018-12-06T14:38:57.931Z,60.01
2018-12-06T14:44:01.279Z,60.59
2018-12-06T14:49:04.772Z,61.36
2018-12-06T14:54:08.170Z,61.00
2018-12-06T14:59:11.515Z,61.71
2018-12-06T15:04:14.925Z,61.70
2018-12-06T15:09:18.495Z,62.52
2018-12-06T15:14:21.815Z,61.97
2018-12-06T15:19:25.205Z,62.65
2018-12-06T15:24:28.614Z,61.91
2018-12-06T15:29:32.037Z,62.13
2018-12-06T15:34:35.567Z,62.34
2018-12-06T15:39:38.924Z,62.14
2018-12-06T15:44:42.942Z,62.72
2018-12-06T15:49:46.267Z,62.85
2018-12-06T15:55:16.568Z,62.55
2018-12-06T16:00:20.008Z,63.30
2018-12-06T16:05:23.379Z,63.36
2018-12-06T16:10:26.999Z,63.03
2018-12-06T16:15:30.470Z,63.40
2018-12-06T16:20:33.854Z,63.29
2018-12-06T16:25:37.869Z,63.25
2018-12-06T16:30:41.272Z,62.60
2018-12-06T16:35:46.448Z,62.27
2018-12-06T16:40:49.934Z,62.22
2018-12-06T16:45:59.939Z,62.46
2018-12-06T16:51:03.299Z,62.62
2018-12-06T16:56:07.812Z,63.03
2018-12-06T17:01:11.319Z,63.26
2018-12-06T17:06:15.344Z,63.38
2018-12-06T17:11:18.701Z,62.99
2018-12-06T17:16:22.116Z,62.54
2018-12-06T17:21:25.471Z,62.12
2018-12-06T17:26:29.374Z,62.34
2018-12-06T17:31:32.689Z,62.06
2018-12-06T17:36:36.123Z,62.07
2018-12-06T17:41:39.484Z,61.58
2018-12-06T17:46:42.918Z,62.30
2018-12-06T17:51:46.423Z,62.26
2018-12-06T17:56:49.768Z,61.42
2018-12-06T18:01:53.082Z,60.86
2018-12-06T18:06:56.499Z,60.47
2018-12-06T18:11:59.851Z,60.80
2018-12-06T18:17:03.286Z,61.16
2018-12-06T18:22:06.716Z,60.52
2018-12-06T18:27:10.239Z,60.05
2018-12-06T18:32:13.607Z,59.07
2018-12-06T18:37:17.106Z,58.81
2018-12-06T18:42:20.459Z,59.21
2018-12-06T18:47:23.978Z,59.50
2018-12-06T18:52:27.375Z,59.57
2018-12-06T18:57:30.751Z,58.95
2018-12-06T19:02:34.178Z,59.23
2018-12-06T19:07:37.533Z,58.72
2018-12-06T19:12:40.842Z,58.59
2018-12-06T19:17:44.230Z,58.37
2018-12-06T19:22:47.563Z,58.26
2018-12-06T19:27:51.015Z,58.05
2018-12-06T19:37:58.867Z,58.11
2018-12-06T19:43:02.274Z,58.08
2018-12-06T19:48:05.634Z,57.82
2018-12-06T19:53:08.960Z,58.11
2018-12-06T19:58:12.299Z,57.88
2018-12-06T20:03:15.630Z,57.54
2018-12-06T20:08:19.309Z,57.83
2018-12-06T20:13:22.618Z,57.93
2018-12-06T20:18:26.027Z,57.79
2018-12-06T20:23:29.455Z,57.76
2018-12-06T20:28:32.864Z,58.24
2018-12-06T20:33:36.199Z,58.21
2018-12-06T20:38:39.536Z,58.18
2018-12-06T20:43:42.961Z,58.21
2018-12-06T20:48:46.363Z,58.18
2018-12-06T20:53:49.855Z,58.00
2018-12-06T20:58:53.410Z,58.74
2018-12-06T21:03:56.852Z,59.71
2018-12-06T21:09:00.375Z,59.79
2018-12-06T21:14:03.871Z,59.49
2018-12-06T21:19:07.890Z,59.44
2018-12-06T21:24:11.470Z,59.88
2018-12-06T21:29:14.879Z,59.82
2018-12-06T21:34:18.278Z,60.06
2018-12-06T21:39:21.735Z,59.72
2018-12-06T21:44:25.096Z,59.82
2018-12-06T21:49:28.494Z,60.27
2018-12-06T21:54:31.859Z,59.93
2018-12-06T21:59:35.183Z,59.88
2018-12-06T22:04:38.526Z,60.52
2018-12-06T22:09:42.792Z,60.29
2018-12-06T22:14:46.243Z,60.80
2018-12-06T22:19:49.650Z,60.56
2018-12-06T22:24:53.331Z,60.00
2018-12-06T22:29:56.691Z,60.51
2018-12-06T22:35:00.113Z,60.89
2018-12-06T22:40:04.274Z,60.28
2018-12-06T22:46:11.979Z,59.48
2018-12-06T22:51:15.437Z,60.41
2018-12-06T22:56:18.818Z,60.26
2018-12-06T23:01:28.533Z,60.39
2018-12-06T23:06:32.168Z,60.60
2018-12-06T23:11:35.566Z,60.94
2018-12-06T23:16:39.085Z,60.89
2018-12-06T23:21:42.478Z,60.57
2018-12-06T23:26:45.834Z,60.72
2018-12-06T23:31:49.515Z,60.49
2018-12-06T23:36:52.942Z,61.03
2018-12-06T23:41:56.411Z,60.73
2018-12-06T23:47:00.228Z,60.41
2018-12-06T23:52:03.604Z,61.15
2018-12-06T23:57:07.164Z,60.84
